This is the latest recevied weather packets stored in our database for station/object LU3HGB-WX. If no packets are shown the sender has not sent any weather packets the latest 10 day(s).
| Time | Temp. | Humidity | Pressure | Rain* | Wind** | Luminosity | Snow |
|---|---|---|---|---|---|---|---|
| 1777554162 | 13.33° C | 73% | 1015 hPa | 0 mm | - | 322 W/m² | - |
| 1777553863 | 12.78° C | 75% | 1015 hPa | 0 mm | - | 305 W/m² | - |
| 1777553561 | 12.22° C | 80% | 1015 hPa | 0 mm | - | 289 W/m² | - |
| 1777553261 | 11.67° C | 77% | 1015 hPa | 0 mm | - | 274 W/m² | - |
| 1777552959 | 11.11° C | 81% | 1015 hPa | 0 mm | - | 257 W/m² | - |
| 1777552662 | 10.56° C | 84% | 1015 hPa | 0 mm | - | 236 W/m² | - |
| 1777552362 | 10° C | 85% | 1015 hPa | 0 mm | - | 221 W/m² | - |
| 1777552060 | 9.44° C | 87% | 1015 hPa | 0 mm | - | 205 W/m² | - |
| 1777551759 | 8.89° C | 88% | 1015 hPa | 0 mm | - | 187 W/m² | - |
| 1777551461 | 8.33° C | 95% | 1015 hPa | 0 mm | - | 170 W/m² | - |
| 1777551160 | 7.78° C | 95% | 1015 hPa | 0 mm | - | 154 W/m² | - |
| 1777550859 | 6.67° C | 95% | 1015 hPa | 0 mm | - | 134 W/m² | - |
| 1777550562 | 6.11° C | 95% | 1015 hPa | 0 mm | - | 122 W/m² | - |
| 1777550262 | 5° C | 95% | 1015 hPa | 0 mm | - | 108 W/m² | - |
| 1777549960 | 4.44° C | 95% | 1015 hPa | 0 mm | - | 94 W/m² | - |
| 1777549661 | 3.89° C | 95% | 1015 hPa | 0 mm | - | 82 W/m² | - |
| 1777549360 | 3.33° C | 95% | 1015 hPa | 0 mm | - | 56 W/m² | - |
| 1777549060 | 3.33° C | 95% | 1015 hPa | 0 mm | - | 36 W/m² | - |
| 1777548762 | 2.78° C | 95% | 1015 hPa | 0 mm | - | 32 W/m² | - |
| 1777548461 | 2.78° C | 95% | 1015 hPa | 0 mm | - | 29 W/m² | - |
| 1777548159 | 2.78° C | 95% | 1014 hPa | 0 mm | - | 25 W/m² | - |
| 1777547861 | 2.78° C | 95% | 1014 hPa | 0 mm | - | 22 W/m² | - |
| 1777547560 | 3.33° C | 95% | 1014 hPa | 0 mm | - | 19 W/m² | - |
| 1777547261 | 3.33° C | 95% | 1014 hPa | 0 mm | - | 15 W/m² | - |
| 1777546960 | 3.33° C | 95% | 1014 hPa | 0 mm | - | 12 W/m² | - |
* Rain latest hour (hover to see other rain measurements)
** Current wind speed in m/s (hover to see current wind gust speed)